createdAt,value
2022-08-07T00:02:37.593Z,100571.81
2022-08-07T00:04:45.364Z,100580.09
2022-08-07T00:07:48.179Z,100580.44
2022-08-07T00:11:00.775Z,100581.28
2022-08-07T00:14:07.191Z,100585.47
2022-08-07T00:17:13.509Z,100580.75
2022-08-07T00:20:15.854Z,100584.09
2022-08-07T00:23:34.586Z,100583.38
2022-08-07T00:26:59.309Z,100580.78
2022-08-07T00:29:59.226Z,100579.03
2022-08-07T00:33:02.172Z,100575.00
2022-08-07T00:36:06.904Z,100574.62
2022-08-07T00:39:09.266Z,100575.09
2022-08-07T00:42:18.945Z,100567.84
2022-08-07T00:45:31.358Z,100578.50
2022-08-07T00:48:33.810Z,100581.84
2022-08-07T00:51:58.385Z,100570.41
2022-08-07T00:55:00.143Z,100573.38
2022-08-07T00:58:07.227Z,100570.38
2022-08-07T01:01:10.072Z,100566.53
2022-08-07T01:04:12.387Z,100570.22
2022-08-07T01:07:29.455Z,100565.66
2022-08-07T01:10:32.255Z,100567.41
2022-08-07T01:13:37.159Z,100562.37
2022-08-07T01:16:39.896Z,100560.81
2022-08-07T01:19:53.899Z,100566.88
2022-08-07T01:23:09.181Z,100562.28
2022-08-07T01:26:17.539Z,100566.88
2022-08-07T01:29:27.948Z,100573.09
2022-08-07T01:32:34.588Z,100564.22
2022-08-07T01:35:53.594Z,100559.88
2022-08-07T01:38:58.466Z,100564.16
2022-08-07T01:42:07.333Z,100566.97
2022-08-07T01:45:36.186Z,100561.56
2022-08-07T01:48:47.906Z,100564.91
2022-08-07T01:52:03.652Z,100564.62
2022-08-07T01:55:11.021Z,100567.31
2022-08-07T01:58:33.175Z,100570.22
2022-08-07T02:02:02.387Z,100572.44
2022-08-07T02:05:16.073Z,100569.84
2022-08-07T02:08:40.468Z,100568.03
2022-08-07T02:12:03.310Z,100576.03
2022-08-07T02:15:10.048Z,100570.91
2022-08-07T02:18:14.136Z,100572.59
2022-08-07T02:21:17.709Z,100575.28
2022-08-07T02:24:21.896Z,100573.34
2022-08-07T02:27:26.517Z,100579.37
2022-08-07T02:30:39.397Z,100579.00
2022-08-07T02:34:03.058Z,100580.13
2022-08-07T02:37:08.775Z,100586.28
2022-08-07T02:40:30.165Z,100593.63
2022-08-07T02:43:39.440Z,100591.50
2022-08-07T02:46:46.559Z,100593.19
2022-08-07T02:49:56.507Z,100592.91
2022-08-07T02:53:10.977Z,100596.53
2022-08-07T02:56:21.058Z,100604.56
2022-08-07T02:59:27.704Z,100607.25
2022-08-07T03:02:32.474Z,100601.09
2022-08-07T03:05:37.828Z,100604.31
2022-08-07T03:08:41.294Z,100602.63
2022-08-07T03:11:52.713Z,100596.53
2022-08-07T03:15:07.601Z,100597.69
2022-08-07T03:18:11.485Z,100597.28
2022-08-07T03:21:20.438Z,100594.78
2022-08-07T03:24:27.554Z,100592.91
2022-08-07T03:27:59.490Z,100600.09
2022-08-07T03:31:14.990Z,100598.59
2022-08-07T03:34:22.358Z,100607.91
2022-08-07T03:37:27.597Z,100608.50
2022-08-07T03:40:36.306Z,100613.69
2022-08-07T03:43:39.840Z,100612.78
2022-08-07T03:47:13.306Z,100601.31
2022-08-07T03:50:23.142Z,100603.09
2022-08-07T03:54:00.653Z,100605.50
2022-08-07T03:57:03.695Z,100600.50
2022-08-07T04:00:11.678Z,100619.03
2022-08-07T04:03:19.274Z,100620.22
2022-08-07T04:06:37.258Z,100623.97
2022-08-07T04:09:45.494Z,100626.66
2022-08-07T04:12:54.388Z,100637.66
2022-08-07T04:15:58.428Z,100649.59
2022-08-07T04:19:04.061Z,100639.25
2022-08-07T04:22:17.628Z,100645.84
2022-08-07T04:25:23.917Z,100652.53
2022-08-07T04:28:26.569Z,100652.81
2022-08-07T04:31:38.380Z,100642.38
2022-08-07T04:34:52.747Z,100659.06
2022-08-07T04:38:03.106Z,100658.88
2022-08-07T04:41:10.765Z,100664.75
2022-08-07T04:44:22.639Z,100659.44
2022-08-07T04:48:01.037Z,100670.34
2022-08-07T04:51:05.801Z,100666.25
2022-08-07T04:54:30.032Z,100666.59
2022-08-07T04:58:11.156Z,100671.66
2022-08-07T05:01:29.940Z,100677.78
2022-08-07T05:04:57.050Z,100666.81
2022-08-07T05:08:07.228Z,100673.78
2022-08-07T05:11:26.341Z,100676.69
2022-08-07T05:14:54.717Z,100671.94
2022-08-07T05:18:09.217Z,100690.28
2022-08-07T05:21:18.343Z,100690.84
2022-08-07T05:24:42.079Z,100692.44
2022-08-07T05:28:03.104Z,100690.00
2022-08-07T05:31:16.585Z,100690.19
2022-08-07T05:34:20.994Z,100694.47
2022-08-07T05:37:30.648Z,100700.16
2022-08-07T05:40:50.670Z,100699.78
2022-08-07T05:44:12.205Z,100712.47
2022-08-07T05:47:19.925Z,100708.94
2022-08-07T05:50:23.995Z,100716.84
2022-08-07T05:54:12.900Z,100718.16
2022-08-07T05:56:51.266Z,100713.50
2022-08-07T05:59:57.188Z,100709.88
2022-08-07T06:03:04.713Z,100710.25
2022-08-07T06:06:09.555Z,100708.16
2022-08-07T06:09:12.259Z,100701.84
2022-08-07T06:12:15.448Z,100706.28
2022-08-07T06:15:19.929Z,100702.56
2022-08-07T06:18:23.813Z,100703.19
2022-08-07T06:22:14.841Z,100710.41
2022-08-07T06:24:58.094Z,100716.59
2022-08-07T06:28:06.135Z,100717.09
2022-08-07T06:31:09.892Z,100726.75
2022-08-07T06:34:12.665Z,100732.63
2022-08-07T06:37:17.207Z,100734.16
2022-08-07T06:40:23.075Z,100736.13
2022-08-07T06:43:39.642Z,100737.44
2022-08-07T06:46:42.873Z,100740.03
2022-08-07T06:49:58.426Z,100740.94
2022-08-07T06:53:04.592Z,100751.75
2022-08-07T06:56:14.786Z,100750.34
2022-08-07T07:00:12.288Z,100749.88
2022-08-07T07:02:54.314Z,100754.94
2022-08-07T07:06:03.651Z,100755.91
2022-08-07T07:09:19.938Z,100745.47
2022-08-07T07:12:48.402Z,100753.38
2022-08-07T07:16:00.245Z,100745.75
2022-08-07T07:19:33.887Z,100747.06
2022-08-07T07:22:36.160Z,100739.41
2022-08-07T07:26:34.318Z,100745.63
2022-08-07T07:29:39.276Z,100746.03
2022-08-07T07:32:40.386Z,100736.94
2022-08-07T07:36:04.985Z,100740.88
2022-08-07T07:39:10.171Z,100738.03
2022-08-07T07:42:17.513Z,100736.62
2022-08-07T07:46:36.618Z,100735.91
2022-08-07T07:49:00.280Z,100736.94
2022-08-07T07:52:16.944Z,100747.91
2022-08-07T07:55:20.737Z,100744.75
2022-08-07T07:58:40.292Z,100735.25
2022-08-07T08:02:03.776Z,100747.78
2022-08-07T08:05:14.171Z,100748.78
2022-08-07T08:08:34.463Z,100746.19
2022-08-07T08:11:59.603Z,100738.59
2022-08-07T08:15:01.970Z,100746.47
2022-08-07T08:18:17.446Z,100747.28
2022-08-07T08:21:58.585Z,100751.00
2022-08-07T08:25:24.844Z,100746.13
2022-08-07T08:28:46.097Z,100751.91
2022-08-07T08:32:16.976Z,100747.88
2022-08-07T08:35:18.675Z,100751.25
2022-08-07T08:38:26.026Z,100751.56
2022-08-07T08:41:57.147Z,100752.22
2022-08-07T08:45:14.316Z,100752.31
2022-08-07T08:48:40.810Z,100757.38
2022-08-07T08:52:14.256Z,100749.44
2022-08-07T08:55:55.079Z,100752.03
2022-08-07T08:59:00.161Z,100752.28
2022-08-07T09:02:35.186Z,100746.97
2022-08-07T09:06:04.052Z,100754.94
2022-08-07T09:09:40.885Z,100751.75
2022-08-07T09:12:52.960Z,100753.34
2022-08-07T09:16:22.935Z,100763.16
2022-08-07T09:19:51.821Z,100763.78
2022-08-07T09:24:49.117Z,100759.44
2022-08-07T09:26:53.190Z,100750.09
2022-08-07T09:30:10.327Z,100757.91
2022-08-07T09:33:52.627Z,100746.88
2022-08-07T09:37:03.286Z,100746.03
2022-08-07T09:40:22.049Z,100753.25
2022-08-07T09:44:06.170Z,100749.53
2022-08-07T09:47:58.122Z,100745.53
2022-08-07T09:50:56.059Z,100738.22
2022-08-07T09:54:05.372Z,100738.97
2022-08-07T09:57:21.931Z,100740.94
2022-08-07T10:00:32.628Z,100728.25
2022-08-07T10:04:14.005Z,100723.66
2022-08-07T10:07:52.870Z,100717.53
2022-08-07T10:12:01.635Z,100714.63
2022-08-07T10:15:26.535Z,100721.63
2022-08-07T10:18:40.051Z,100710.84
2022-08-07T10:22:16.157Z,100703.44
2022-08-07T10:25:43.151Z,100701.13
2022-08-07T10:29:08.047Z,100697.19
2022-08-07T10:32:36.745Z,100692.72
2022-08-07T10:36:16.989Z,100705.41
2022-08-07T10:39:57.609Z,100699.41
2022-08-07T10:43:15.460Z,100693.00
2022-08-07T10:46:26.985Z,100688.97
2022-08-07T10:49:49.307Z,100678.09
2022-08-07T10:53:22.827Z,100674.37
2022-08-07T10:56:54.575Z,100667.69
2022-08-07T11:00:03.754Z,100668.22
2022-08-07T11:03:23.747Z,100663.28
2022-08-07T11:06:50.450Z,100665.59
2022-08-07T11:10:07.230Z,100657.41
2022-08-07T11:14:57.045Z,100665.81
2022-08-07T11:17:01.998Z,100658.28
2022-08-07T11:20:09.697Z,100650.28
2022-08-07T11:23:30.513Z,100649.12
2022-08-07T11:26:50.508Z,100643.34
2022-08-07T11:30:18.673Z,100636.81
2022-08-07T11:33:54.288Z,100632.75
2022-08-07T11:37:38.554Z,100634.41
2022-08-07T11:41:18.228Z,100637.13
2022-08-07T11:44:52.562Z,100628.59
2022-08-07T11:48:29.238Z,100628.56
2022-08-07T11:51:50.733Z,100630.88
2022-08-07T11:55:18.712Z,100619.72
2022-08-07T11:58:39.279Z,100614.50
2022-08-07T12:02:20.655Z,100612.59
2022-08-07T12:05:49.394Z,100612.41
2022-08-07T12:09:40.221Z,100601.56
2022-08-07T12:13:11.636Z,100599.87
2022-08-07T12:16:30.234Z,100595.72
2022-08-07T12:20:02.753Z,100592.00
2022-08-07T12:24:05.860Z,100585.56
2022-08-07T12:26:58.740Z,100589.84
2022-08-07T12:30:07.531Z,100590.25
2022-08-07T12:33:28.241Z,100586.06
2022-08-07T12:36:34.825Z,100577.25
2022-08-07T12:39:50.552Z,100580.25
2022-08-07T12:42:57.391Z,100576.19
2022-08-07T12:46:10.456Z,100561.66
2022-08-07T12:49:51.699Z,100568.75
2022-08-07T12:53:18.960Z,100573.72
2022-08-07T12:56:36.235Z,100564.00
2022-08-07T12:59:54.544Z,100556.53
2022-08-07T13:03:26.812Z,100557.06
2022-08-07T13:07:08.970Z,100561.84
2022-08-07T13:10:51.734Z,100553.31
2022-08-07T13:14:18.474Z,100552.72
2022-08-07T13:17:40.624Z,100542.91
2022-08-07T13:20:51.084Z,100540.88
2022-08-07T13:24:04.747Z,100550.91
2022-08-07T13:27:20.819Z,100543.72
2022-08-07T13:30:40.030Z,100544.72
2022-08-07T13:34:32.092Z,100542.03
2022-08-07T13:38:02.331Z,100547.50
2022-08-07T13:41:35.025Z,100539.44
2022-08-07T13:44:39.594Z,100533.13
2022-08-07T13:48:07.721Z,100526.31
2022-08-07T13:51:27.461Z,100528.28
2022-08-07T13:54:33.594Z,100524.41
2022-08-07T13:57:39.708Z,100509.50
2022-08-07T14:01:10.957Z,100508.41
2022-08-07T14:04:16.341Z,100505.47
2022-08-07T14:07:28.523Z,100502.13
2022-08-07T14:10:42.079Z,100501.87
2022-08-07T14:13:55.080Z,100496.91
2022-08-07T14:17:32.233Z,100501.56
2022-08-07T14:20:41.190Z,100502.41
2022-08-07T14:24:01.048Z,100492.50
2022-08-07T14:27:16.201Z,100492.19
2022-08-07T14:34:01.601Z,100484.16
2022-08-07T14:37:16.304Z,100481.31
2022-08-07T14:40:27.259Z,100483.50
2022-08-07T14:43:58.469Z,100481.06
2022-08-07T14:47:08.901Z,100477.69
2022-08-07T14:50:22.549Z,100472.28
2022-08-07T14:54:03.573Z,100473.69
2022-08-07T14:56:57.018Z,100467.72
2022-08-07T15:00:03.577Z,100470.78
2022-08-07T15:03:18.658Z,100470.94
2022-08-07T15:06:25.253Z,100463.87
2022-08-07T15:13:06.323Z,100454.66
2022-08-07T15:16:14.626Z,100448.03
2022-08-07T15:19:22.546Z,100444.78
2022-08-07T15:22:53.956Z,100438.53
2022-08-07T15:25:58.369Z,100443.66
2022-08-07T15:30:06.582Z,100443.47
2022-08-07T15:32:39.854Z,100439.06
2022-08-07T15:36:01.175Z,100441.16
2022-08-07T15:39:10.513Z,100438.22
2022-08-07T15:42:43.863Z,100433.59
2022-08-07T15:45:58.263Z,100437.84
2022-08-07T15:49:12.917Z,100427.97
2022-08-07T15:52:30.162Z,100428.03
2022-08-07T15:55:53.804Z,100427.53
2022-08-07T15:59:01.082Z,100429.69
2022-08-07T16:02:06.860Z,100416.84
2022-08-07T16:05:20.050Z,100426.78
2022-08-07T16:08:37.878Z,100427.72
2022-08-07T16:12:12.495Z,100428.69
2022-08-07T16:15:55.466Z,100427.47
2022-08-07T16:19:42.531Z,100427.47
2022-08-07T16:22:56.629Z,100418.09
2022-08-07T16:26:02.251Z,100419.84
2022-08-07T16:30:11.936Z,100426.06
2022-08-07T16:34:03.182Z,100426.25
2022-08-07T16:37:01.669Z,100426.94
2022-08-07T16:40:33.538Z,100425.50
2022-08-07T16:44:02.348Z,100428.34
2022-08-07T16:47:18.664Z,100425.88
2022-08-07T16:51:20.484Z,100419.81
2022-08-07T16:54:54.202Z,100416.84
2022-08-07T16:59:10.236Z,100423.97
2022-08-07T17:02:51.181Z,100427.34
2022-08-07T17:06:29.976Z,100424.25
2022-08-07T17:10:05.200Z,100422.63
2022-08-07T17:13:21.246Z,100426.78
2022-08-07T17:16:43.664Z,100423.22
2022-08-07T17:20:02.567Z,100433.53
2022-08-07T17:23:17.183Z,100428.78
2022-08-07T17:26:36.824Z,100434.47
2022-08-07T17:30:19.710Z,100432.81
2022-08-07T17:34:10.195Z,100429.63
2022-08-07T17:37:14.256Z,100423.69
2022-08-07T17:40:39.761Z,100424.97
2022-08-07T17:44:03.153Z,100433.75
2022-08-07T17:47:38.393Z,100445.78
2022-08-07T17:50:57.385Z,100449.09
2022-08-07T17:54:39.566Z,100447.88
2022-08-07T17:57:56.286Z,100454.63
2022-08-07T18:01:21.150Z,100461.84
2022-08-07T18:04:35.086Z,100454.63
2022-08-07T18:07:37.676Z,100465.16
2022-08-07T18:12:16.257Z,100474.63
2022-08-07T18:14:37.554Z,100482.53
2022-08-07T18:18:44.853Z,100485.81
2022-08-07T18:21:38.269Z,100490.94
2022-08-07T18:25:01.513Z,100490.47
2022-08-07T18:28:35.190Z,100492.66
2022-08-07T18:31:57.805Z,100494.25
2022-08-07T18:35:10.425Z,100496.53
2022-08-07T18:38:59.590Z,100499.56
2022-08-07T18:42:29.276Z,100498.37
2022-08-07T18:46:25.081Z,100510.00
2022-08-07T18:50:31.269Z,100511.03
2022-08-07T18:53:21.923Z,100515.00
2022-08-07T18:56:58.936Z,100525.91
2022-08-07T19:00:34.507Z,100520.22
2022-08-07T19:03:43.885Z,100528.81
2022-08-07T19:06:56.485Z,100533.59
2022-08-07T19:10:12.131Z,100524.31
2022-08-07T19:13:55.346Z,100536.69
2022-08-07T19:17:08.136Z,100535.09
2022-08-07T19:20:28.827Z,100549.59
2022-08-07T19:23:59.232Z,100558.69
2022-08-07T19:28:57.600Z,100554.94
2022-08-07T19:30:55.493Z,100559.16
2022-08-07T19:34:02.593Z,100568.16
2022-08-07T19:37:17.507Z,100579.03
2022-08-07T19:40:30.555Z,100578.22
2022-08-07T19:43:49.218Z,100587.66
2022-08-07T19:47:05.018Z,100590.38
2022-08-07T19:50:44.274Z,100594.78
2022-08-07T19:54:33.257Z,100602.09
2022-08-07T19:58:02.614Z,100592.28
2022-08-07T20:00:28.814Z,100599.13
2022-08-07T20:03:35.670Z,100604.75
2022-08-07T20:06:42.996Z,100610.63
2022-08-07T20:10:35.847Z,100613.94
2022-08-07T20:13:22.639Z,100605.16
2022-08-07T20:16:35.471Z,100615.97
2022-08-07T20:19:48.307Z,100614.66
2022-08-07T20:23:23.264Z,100607.97
2022-08-07T20:26:45.065Z,100624.44
2022-08-07T20:29:58.413Z,100626.84
2022-08-07T20:33:05.755Z,100630.53
2022-08-07T20:36:13.240Z,100634.66
2022-08-07T20:40:01.362Z,100629.50
2022-08-07T20:42:48.331Z,100635.09
2022-08-07T20:46:27.694Z,100637.44
2022-08-07T20:49:59.782Z,100637.00
2022-08-07T20:52:51.335Z,100640.97
2022-08-07T20:55:57.582Z,100630.03
2022-08-07T20:59:05.146Z,100642.09
2022-08-07T21:02:39.317Z,100639.75
2022-08-07T21:05:55.714Z,100641.78
2022-08-07T21:09:13.720Z,100642.19
2022-08-07T21:12:29.116Z,100642.12
2022-08-07T21:15:47.595Z,100641.44
2022-08-07T21:19:01.115Z,100645.78
2022-08-07T21:22:05.759Z,100642.38
2022-08-07T21:25:19.159Z,100647.56
2022-08-07T21:28:48.362Z,100659.62
2022-08-07T21:32:46.897Z,100661.47
2022-08-07T21:35:34.535Z,100664.06
2022-08-07T21:39:45.138Z,100670.34
2022-08-07T21:43:04.378Z,100673.12
2022-08-07T21:46:24.880Z,100672.59
2022-08-07T21:50:02.107Z,100678.81
2022-08-07T21:53:16.994Z,100681.06
2022-08-07T21:56:47.083Z,100680.53
2022-08-07T22:00:09.283Z,100672.31
2022-08-07T22:03:47.566Z,100674.00
2022-08-07T22:07:10.056Z,100678.97
2022-08-07T22:10:17.442Z,100685.47
2022-08-07T22:13:24.685Z,100690.63
2022-08-07T22:16:54.018Z,100687.94
2022-08-07T22:20:24.007Z,100688.69
2022-08-07T22:23:40.495Z,100685.94
2022-08-07T22:26:50.763Z,100680.25
2022-08-07T22:30:12.703Z,100685.00
2022-08-07T22:33:17.166Z,100683.66
2022-08-07T22:36:53.166Z,100686.28
2022-08-07T22:40:22.499Z,100678.34
2022-08-07T22:43:57.255Z,100687.41
2022-08-07T22:47:23.185Z,100693.34
2022-08-07T22:51:00.757Z,100692.50
2022-08-07T22:54:08.757Z,100690.19
2022-08-07T22:57:16.956Z,100689.44
2022-08-07T23:00:28.385Z,100700.22
2022-08-07T23:04:00.177Z,100700.53
2022-08-07T23:07:41.258Z,100699.78
2022-08-07T23:11:28.549Z,100703.41
2022-08-07T23:15:06.528Z,100706.12
2022-08-07T23:18:42.969Z,100713.22
2022-08-07T23:21:56.088Z,100705.94
2022-08-07T23:25:28.461Z,100712.06
2022-08-07T23:29:00.458Z,100713.03
2022-08-07T23:34:19.829Z,100709.19
2022-08-07T23:35:29.097Z,100714.19
2022-08-07T23:38:54.499Z,100712.75
2022-08-07T23:42:25.573Z,100703.50
2022-08-07T23:46:03.189Z,100711.97
2022-08-07T23:49:50.278Z,100715.59
2022-08-07T23:53:11.656Z,100711.41
2022-08-07T23:56:37.855Z,100714.03
